createdAt,value
2019-05-01T00:00:28.263Z,25.63
2019-05-01T00:03:15.292Z,21.43
2019-05-01T00:05:48.003Z,29.93
2019-05-01T00:08:17.140Z,22.50
2019-05-01T00:10:46.271Z,24.50
2019-05-01T00:13:15.616Z,23.23
2019-05-01T00:15:44.999Z,20.50
2019-05-01T00:18:14.077Z,19.33
2019-05-01T00:20:43.377Z,18.87
2019-05-01T00:23:12.475Z,22.37
2019-05-01T00:25:41.981Z,23.20
2019-05-01T00:28:11.228Z,20.67
2019-05-01T00:30:40.873Z,22.03
2019-05-01T00:33:10.276Z,22.97
2019-05-01T00:35:39.469Z,20.17
2019-05-01T00:38:08.618Z,24.13
2019-05-01T00:40:37.870Z,19.97
2019-05-01T00:43:07.148Z,20.40
2019-05-01T00:45:36.230Z,20.37
2019-05-01T00:48:05.511Z,24.03
2019-05-01T00:50:34.809Z,21.23
2019-05-01T00:53:04.413Z,18.07
2019-05-01T00:55:51.097Z,17.20
2019-05-01T00:58:28.038Z,22.60
2019-05-01T01:01:21.387Z,21.83
2019-05-01T01:03:50.623Z,20.90
2019-05-01T01:06:20.030Z,24.83
2019-05-01T01:08:49.214Z,21.50
2019-05-01T01:11:18.298Z,20.93
2019-05-01T01:13:47.539Z,21.80
2019-05-01T01:16:16.686Z,20.17
2019-05-01T01:18:46.019Z,22.37
2019-05-01T01:21:15.155Z,21.47
2019-05-01T01:23:44.677Z,23.83
2019-05-01T01:26:14.033Z,20.37
2019-05-01T01:28:43.110Z,21.00
2019-05-01T01:31:12.439Z,22.00
2019-05-01T01:33:41.726Z,22.00
2019-05-01T01:36:10.808Z,20.53
2019-05-01T01:38:39.900Z,20.03
2019-05-01T01:41:09.181Z,19.17
2019-05-01T01:43:55.751Z,20.03
2019-05-01T01:46:27.242Z,21.23
2019-05-01T01:48:57.055Z,19.53
2019-05-01T01:51:26.320Z,22.87
2019-05-01T01:53:55.706Z,23.00
2019-05-01T01:56:24.897Z,25.27
2019-05-01T01:58:54.158Z,22.60
2019-05-01T02:01:40.410Z,21.80
2019-05-01T02:04:22.917Z,21.47
2019-05-01T02:06:52.002Z,21.03
2019-05-01T02:09:21.048Z,22.60
2019-05-01T02:11:50.640Z,19.50
2019-05-01T02:14:19.674Z,21.00
2019-05-01T02:16:48.740Z,22.30
2019-05-01T02:19:18.025Z,21.03
2019-05-01T02:21:47.159Z,20.10
2019-05-01T02:24:16.523Z,21.33
2019-05-01T02:26:48.410Z,24.10
2019-05-01T02:29:23.621Z,23.90
2019-05-01T02:31:54.078Z,19.20
2019-05-01T02:34:23.616Z,20.27
2019-05-01T02:36:53.581Z,21.20
2019-05-01T02:39:22.900Z,20.33
2019-05-01T02:41:53.591Z,22.00
2019-05-01T02:44:32.193Z,24.87
2019-05-01T02:47:04.830Z,19.23
2019-05-01T02:49:43.224Z,22.03
2019-05-01T02:52:13.047Z,20.47
2019-05-01T02:54:43.289Z,20.93
2019-05-01T02:57:16.432Z,20.30
2019-05-01T02:59:47.565Z,19.53
2019-05-01T03:02:18.599Z,21.20
2019-05-01T03:04:48.037Z,22.67
2019-05-01T03:07:17.968Z,20.83
2019-05-01T03:09:47.582Z,20.97
2019-05-01T03:12:18.492Z,19.73
2019-05-01T03:14:49.404Z,21.07
2019-05-01T03:17:38.006Z,18.63
2019-05-01T03:20:26.557Z,20.60
2019-05-01T03:23:33.377Z,19.23
2019-05-01T03:26:02.687Z,21.03
2019-05-01T03:28:32.331Z,22.43
2019-05-01T03:31:02.244Z,21.30
2019-05-01T03:33:31.505Z,22.33
2019-05-01T03:36:00.570Z,19.10
2019-05-01T03:38:30.947Z,19.43
2019-05-01T03:41:00.137Z,23.90
2019-05-01T03:43:29.606Z,20.00
2019-05-01T03:45:59.067Z,20.20
2019-05-01T03:48:29.065Z,19.73
2019-05-01T03:50:58.282Z,19.73
2019-05-01T03:53:27.855Z,20.93
2019-05-01T03:55:57.145Z,20.33
2019-05-01T03:58:26.490Z,18.70
2019-05-01T04:01:13.327Z,21.03
2019-05-01T04:03:49.466Z,21.37
2019-05-01T04:06:18.797Z,21.00
2019-05-01T04:08:47.916Z,19.70
2019-05-01T04:11:17.001Z,20.30
2019-05-01T04:13:46.383Z,20.10
2019-05-01T04:16:16.221Z,19.70
2019-05-01T04:18:45.593Z,21.40
2019-05-01T04:21:15.023Z,21.10
2019-05-01T04:23:44.153Z,23.83
2019-05-01T04:26:13.701Z,18.50
2019-05-01T04:28:52.000Z,21.27
2019-05-01T04:31:46.372Z,20.57
2019-05-01T04:34:25.252Z,19.43
2019-05-01T04:36:56.612Z,23.00
2019-05-01T04:39:26.183Z,22.77
2019-05-01T04:41:55.516Z,21.70
2019-05-01T04:44:24.914Z,21.00
2019-05-01T04:46:54.725Z,21.63
2019-05-01T04:49:23.934Z,21.23
2019-05-01T04:51:53.237Z,19.07
2019-05-01T04:54:22.739Z,22.70
2019-05-01T04:56:52.005Z,18.10
2019-05-01T04:59:21.416Z,21.43
2019-05-01T05:01:59.720Z,21.90
2019-05-01T05:04:29.038Z,19.10
2019-05-01T05:06:58.391Z,20.23
2019-05-01T05:09:42.630Z,19.73
2019-05-01T05:12:20.900Z,21.57
2019-05-01T05:14:55.001Z,20.73
2019-05-01T05:17:24.374Z,22.80
2019-05-01T05:19:53.636Z,20.33
2019-05-01T05:22:22.943Z,16.93
2019-05-01T05:24:53.018Z,19.80
2019-05-01T05:27:22.666Z,23.13
2019-05-01T05:29:53.824Z,17.80
2019-05-01T05:32:24.014Z,17.57
2019-05-01T05:34:54.776Z,18.43
2019-05-01T05:37:28.916Z,17.50
2019-05-01T05:39:58.759Z,19.10
2019-05-01T05:42:28.379Z,21.27
2019-05-01T05:44:57.563Z,19.77
2019-05-01T05:47:27.023Z,20.13
2019-05-01T05:49:56.103Z,22.07
2019-05-01T05:52:53.921Z,19.23
2019-05-01T05:55:31.866Z,17.87
2019-05-01T05:58:14.141Z,18.00
2019-05-01T06:01:11.769Z,17.40
2019-05-01T06:03:58.957Z,18.57
2019-05-01T06:06:53.752Z,19.83
2019-05-01T06:09:29.033Z,21.80
2019-05-01T06:12:12.121Z,17.80
2019-05-01T06:14:55.944Z,15.17
2019-05-01T06:17:40.913Z,17.53
2019-05-01T06:20:28.990Z,15.80
2019-05-01T06:23:15.768Z,17.60
2019-05-01T06:25:45.310Z,17.60
2019-05-01T06:28:14.757Z,16.47
2019-05-01T06:30:47.068Z,19.07
2019-05-01T06:33:18.057Z,19.53
2019-05-01T06:35:47.373Z,18.37
2019-05-01T06:38:17.780Z,20.87
2019-05-01T06:40:53.204Z,17.23
2019-05-01T06:43:29.290Z,15.07
2019-05-01T06:46:22.005Z,20.93
2019-05-01T06:48:57.004Z,15.93
2019-05-01T06:51:53.189Z,17.30
2019-05-01T06:54:22.316Z,16.33
2019-05-01T06:56:51.486Z,17.70
2019-05-01T06:59:21.582Z,16.73
2019-05-01T07:01:53.278Z,14.50
2019-05-01T07:04:23.118Z,17.57
2019-05-01T07:06:52.599Z,18.73
2019-05-01T07:09:28.011Z,16.23
2019-05-01T07:11:54.563Z,17.00
2019-05-01T07:14:23.901Z,17.63
2019-05-01T07:16:53.082Z,20.47
2019-05-01T07:19:41.976Z,18.20
2019-05-01T07:22:11.129Z,18.60
2019-05-01T07:24:40.424Z,20.80
2019-05-01T07:27:09.475Z,20.93
2019-05-01T07:29:44.852Z,21.03
2019-05-01T07:32:11.724Z,23.97
2019-05-01T07:34:41.185Z,22.20
2019-05-01T07:37:10.390Z,20.17
2019-05-01T07:39:39.696Z,20.00
2019-05-01T07:42:32.844Z,20.13
2019-05-01T07:45:28.906Z,19.13
2019-05-01T07:48:00.991Z,19.67
2019-05-01T07:50:31.876Z,22.57
2019-05-01T07:53:00.827Z,24.23
2019-05-01T07:55:36.302Z,20.87
2019-05-01T07:58:10.328Z,22.73
2019-05-01T08:01:01.971Z,18.77
2019-05-01T08:03:31.220Z,24.87
2019-05-01T08:06:00.403Z,22.60
2019-05-01T08:08:29.514Z,27.20
2019-05-01T08:10:59.908Z,22.70
2019-05-01T08:13:30.637Z,20.17
2019-05-01T08:16:02.073Z,22.63
2019-05-01T08:18:41.203Z,21.63
2019-05-01T08:21:25.557Z,22.93
2019-05-01T08:23:51.659Z,23.93
2019-05-01T08:26:20.832Z,23.63
2019-05-01T08:29:08.136Z,21.50
2019-05-01T08:32:03.484Z,22.67
2019-05-01T08:34:30.153Z,22.93
2019-05-01T08:36:59.641Z,22.53
2019-05-01T08:39:28.764Z,26.43
2019-05-01T08:41:58.023Z,25.00
2019-05-01T08:44:29.529Z,21.50
2019-05-01T08:47:16.046Z,22.77
2019-05-01T08:50:04.193Z,24.97
2019-05-01T08:52:33.633Z,28.00
2019-05-01T08:55:04.228Z,22.70
2019-05-01T08:57:35.914Z,26.40
2019-05-01T09:00:05.035Z,23.30
2019-05-01T09:02:36.658Z,25.83
2019-05-01T09:05:07.278Z,25.03
2019-05-01T09:07:36.691Z,24.40
2019-05-01T09:10:08.967Z,23.37
2019-05-01T09:12:37.180Z,23.77
2019-05-01T09:15:12.451Z,24.13
2019-05-01T09:17:38.009Z,24.63
2019-05-01T09:20:08.163Z,26.57
2019-05-01T09:22:37.282Z,24.33
2019-05-01T09:25:07.984Z,19.97
2019-05-01T09:27:47.279Z,23.33
2019-05-01T09:30:26.796Z,23.30
2019-05-01T09:32:55.552Z,24.47
2019-05-01T09:35:24.756Z,25.33
2019-05-01T09:37:53.896Z,26.73
2019-05-01T09:40:23.025Z,23.90
2019-05-01T09:42:54.658Z,19.43
2019-05-01T09:45:24.222Z,24.47
2019-05-01T09:47:53.488Z,21.00
2019-05-01T09:50:25.901Z,19.13
2019-05-01T09:53:11.611Z,18.33
2019-05-01T09:55:47.465Z,18.00
2019-05-01T09:58:16.749Z,22.10
2019-05-01T10:00:48.895Z,17.93
2019-05-01T10:03:18.123Z,19.10
2019-05-01T10:05:48.442Z,16.67
2019-05-01T10:08:17.536Z,22.87
2019-05-01T10:10:46.792Z,17.03
2019-05-01T10:13:17.631Z,19.83
2019-05-01T10:15:46.717Z,21.23
2019-05-01T10:18:15.826Z,21.17
2019-05-01T10:20:44.925Z,19.30
2019-05-01T10:23:15.057Z,17.33
2019-05-01T10:25:49.761Z,16.93
2019-05-01T10:28:31.749Z,18.63
2019-05-01T10:31:11.957Z,16.53
2019-05-01T10:33:43.165Z,17.10
2019-05-01T10:36:31.230Z,13.50
2019-05-01T10:39:01.215Z,14.70
2019-05-01T10:41:30.535Z,13.73
2019-05-01T10:44:00.607Z,11.50
2019-05-01T10:46:29.840Z,11.87
2019-05-01T10:48:58.993Z,12.53
2019-05-01T10:51:28.106Z,9.47
2019-05-01T10:53:57.578Z,10.93
2019-05-01T10:56:26.810Z,11.60
2019-05-01T10:58:55.930Z,12.87
2019-05-01T11:01:50.132Z,12.77
2019-05-01T11:04:20.262Z,9.73
2019-05-01T11:06:49.591Z,10.80
2019-05-01T11:09:19.089Z,10.20
2019-05-01T11:11:48.390Z,14.93
2019-05-01T11:14:17.689Z,11.43
2019-05-01T11:16:46.902Z,10.13
2019-05-01T11:19:15.983Z,10.57
2019-05-01T11:21:45.885Z,10.20
2019-05-01T11:24:15.095Z,9.13
2019-05-01T11:26:44.424Z,8.83
2019-05-01T11:29:13.613Z,9.27
2019-05-01T11:32:04.699Z,12.73
2019-05-01T11:34:49.768Z,9.70
2019-05-01T11:37:37.841Z,16.13
2019-05-01T11:40:12.146Z,11.07
2019-05-01T11:42:41.259Z,14.13
2019-05-01T11:45:10.776Z,10.90
2019-05-01T11:47:39.922Z,10.87
2019-05-01T11:50:09.152Z,9.60
2019-05-01T11:52:38.321Z,11.03
2019-05-01T11:55:07.469Z,13.83
2019-05-01T11:57:36.724Z,10.60
2019-05-01T12:00:06.968Z,12.37
2019-05-01T12:02:36.513Z,8.90
2019-05-01T12:05:06.339Z,8.47
2019-05-01T12:07:35.463Z,11.63
2019-05-01T12:10:05.547Z,10.53
2019-05-01T12:12:35.124Z,12.33
2019-05-01T12:15:05.390Z,13.37
2019-05-01T12:17:46.901Z,11.90
2019-05-01T12:20:17.029Z,11.63
2019-05-01T12:22:49.610Z,10.30
2019-05-01T12:25:17.454Z,8.63
2019-05-01T12:27:46.771Z,8.23
2019-05-01T12:30:17.285Z,11.53
2019-05-01T12:32:46.947Z,12.30
2019-05-01T12:35:16.272Z,10.13
2019-05-01T12:37:47.509Z,9.10
2019-05-01T12:40:21.781Z,8.93
2019-05-01T12:42:50.906Z,10.23
2019-05-01T12:45:20.882Z,12.23
2019-05-01T12:47:52.239Z,9.33
2019-05-01T12:50:21.349Z,9.60
2019-05-01T12:53:07.953Z,13.97
2019-05-01T12:56:02.324Z,9.87
2019-05-01T12:58:31.759Z,9.73
2019-05-01T13:01:01.063Z,11.40
2019-05-01T13:03:30.247Z,11.37
2019-05-01T13:05:59.634Z,9.40
2019-05-01T13:08:28.736Z,10.53
2019-05-01T13:10:58.505Z,10.43
2019-05-01T13:13:27.737Z,10.50
2019-05-01T13:15:56.858Z,8.93
2019-05-01T13:18:26.032Z,10.40
2019-05-01T13:20:55.215Z,13.10
2019-05-01T13:23:24.320Z,11.13
2019-05-01T13:25:55.277Z,8.37
2019-05-01T13:28:43.493Z,10.20
2019-05-01T13:31:32.422Z,12.03
2019-05-01T13:34:01.508Z,9.13
2019-05-01T13:36:31.033Z,9.60
2019-05-01T13:39:00.390Z,11.27
2019-05-01T13:41:29.767Z,9.60
2019-05-01T13:43:59.093Z,14.43
2019-05-01T13:46:28.383Z,9.90
2019-05-01T13:48:57.505Z,8.90
2019-05-01T13:51:26.856Z,8.70
2019-05-01T13:53:55.922Z,8.20
2019-05-01T13:56:25.024Z,11.10
2019-05-01T13:58:54.296Z,16.27
2019-05-01T14:01:24.030Z,8.57
2019-05-01T14:03:53.446Z,6.97
2019-05-01T14:06:22.830Z,9.13
2019-05-01T14:08:52.279Z,11.10
2019-05-01T14:11:21.663Z,9.77
2019-05-01T14:13:51.366Z,10.97
2019-05-01T14:16:20.714Z,9.73
2019-05-01T14:18:49.830Z,8.10
2019-05-01T14:21:26.617Z,10.97
2019-05-01T14:24:11.662Z,12.97
2019-05-01T14:26:41.804Z,15.83
2019-05-01T14:29:11.490Z,9.30
2019-05-01T14:31:41.887Z,10.97
2019-05-01T14:34:11.567Z,9.90
2019-05-01T14:36:41.061Z,9.90
2019-05-01T14:39:10.982Z,7.97
2019-05-01T14:41:41.221Z,9.10
2019-05-01T14:44:10.698Z,8.83
2019-05-01T14:46:40.013Z,9.50
2019-05-01T14:49:09.320Z,9.20
2019-05-01T14:51:38.430Z,8.97
2019-05-01T14:54:07.544Z,7.70
2019-05-01T14:56:36.792Z,10.53
2019-05-01T14:59:05.914Z,7.80
2019-05-01T15:01:35.122Z,9.47
2019-05-01T15:04:04.456Z,10.33
2019-05-01T15:06:33.534Z,9.60
2019-05-01T15:09:02.661Z,8.27
2019-05-01T15:11:31.992Z,10.97
2019-05-01T15:14:20.067Z,7.60
2019-05-01T15:16:54.637Z,7.70
2019-05-01T15:19:25.790Z,7.40
2019-05-01T15:21:55.052Z,8.80
2019-05-01T15:24:24.206Z,8.70
2019-05-01T15:26:53.712Z,10.05
2019-05-01T15:29:22.936Z,7.50
2019-05-01T15:31:52.590Z,7.80
2019-05-01T15:34:21.836Z,8.10
2019-05-01T15:36:51.122Z,8.87
2019-05-01T15:39:28.179Z,7.60
2019-05-01T15:42:10.313Z,7.23
2019-05-01T15:44:39.504Z,7.70
2019-05-01T15:47:08.806Z,7.80
2019-05-01T15:49:38.016Z,7.50
2019-05-01T15:52:07.498Z,8.10
2019-05-01T15:54:36.803Z,8.40
2019-05-01T15:57:06.305Z,9.33
2019-05-01T15:59:35.377Z,7.97
2019-05-01T16:02:04.686Z,9.97
2019-05-01T16:04:33.810Z,6.83
2019-05-01T16:07:03.008Z,7.40
2019-05-01T16:09:32.251Z,7.57
2019-05-01T16:12:16.441Z,9.90
2019-05-01T16:14:49.829Z,10.37
2019-05-01T16:17:20.162Z,11.53
2019-05-01T16:19:49.299Z,7.40
2019-05-01T16:22:18.768Z,8.60
2019-05-01T16:24:47.848Z,7.43
2019-05-01T16:27:17.481Z,8.00
2019-05-01T16:29:46.814Z,9.90
2019-05-01T16:32:16.139Z,7.43
2019-05-01T16:34:45.508Z,8.13
2019-05-01T16:37:14.800Z,8.10
2019-05-01T16:40:02.307Z,9.73
2019-05-01T16:42:36.398Z,6.50
2019-05-01T16:45:06.505Z,8.27
2019-05-01T16:47:35.840Z,8.20
2019-05-01T16:50:06.513Z,6.70
2019-05-01T16:52:36.979Z,6.93
2019-05-01T16:55:08.408Z,7.57
2019-05-01T16:57:37.866Z,7.23
2019-05-01T17:00:10.301Z,7.53
2019-05-01T17:03:14.087Z,8.43
2019-05-01T17:05:58.393Z,9.27
2019-05-01T17:08:58.531Z,7.17
2019-05-01T17:11:29.456Z,6.50
2019-05-01T17:13:59.288Z,8.87
2019-05-01T17:16:28.560Z,13.43
2019-05-01T17:18:58.681Z,7.00
2019-05-01T17:21:28.396Z,6.67
2019-05-01T17:23:57.924Z,7.07
2019-05-01T17:26:27.333Z,7.20
2019-05-01T17:28:56.621Z,8.80
2019-05-01T17:31:28.493Z,7.77
2019-05-01T17:33:57.638Z,6.33
2019-05-01T17:36:27.732Z,7.00
2019-05-01T17:38:59.283Z,7.10
2019-05-01T17:41:29.098Z,6.73
2019-05-01T17:43:58.571Z,8.43
2019-05-01T17:46:28.685Z,6.40
2019-05-01T17:49:04.094Z,7.60
2019-05-01T17:51:32.101Z,7.40
2019-05-01T17:54:02.245Z,7.17
2019-05-01T17:56:32.719Z,6.57
2019-05-01T17:59:03.676Z,6.37
2019-05-01T18:01:50.024Z,7.30
2019-05-01T18:04:30.911Z,6.93
2019-05-01T18:07:00.459Z,5.67
2019-05-01T18:09:29.576Z,6.50
2019-05-01T18:11:59.089Z,5.97
2019-05-01T18:14:28.326Z,5.73
2019-05-01T18:16:57.466Z,6.50
2019-05-01T18:19:26.591Z,8.17
2019-05-01T18:22:20.473Z,6.70
2019-05-01T18:25:14.581Z,7.00
2019-05-01T18:27:58.406Z,8.20
2019-05-01T18:30:33.676Z,9.23
2019-05-01T18:33:05.191Z,9.60
2019-05-01T18:35:34.497Z,12.13
2019-05-01T18:38:32.063Z,8.07
2019-05-01T18:41:28.014Z,7.83
2019-05-01T18:43:57.218Z,8.20
2019-05-01T18:46:27.393Z,12.33
2019-05-01T18:48:59.152Z,7.70
2019-05-01T18:51:28.651Z,11.00
2019-05-01T18:53:59.742Z,8.20
2019-05-01T18:56:31.268Z,10.80
2019-05-01T18:59:00.352Z,8.80
2019-05-01T19:01:29.730Z,8.77
2019-05-01T19:03:59.135Z,8.40
2019-05-01T19:06:40.660Z,9.57
2019-05-01T19:08:59.241Z,8.10
2019-05-01T19:11:28.382Z,12.33
2019-05-01T19:13:58.784Z,9.23
2019-05-01T19:16:27.966Z,8.73
2019-05-01T19:18:57.523Z,8.03
2019-05-01T19:21:29.088Z,9.23
2019-05-01T19:24:00.449Z,9.80
2019-05-01T19:26:29.811Z,10.00
2019-05-01T19:28:59.045Z,8.70
2019-05-01T19:31:29.087Z,11.10
2019-05-01T19:33:58.233Z,9.07
2019-05-01T19:36:27.527Z,9.03
2019-05-01T19:38:56.833Z,12.10
2019-05-01T19:41:27.059Z,10.00
2019-05-01T19:43:56.436Z,9.93
2019-05-01T19:46:25.720Z,10.00
2019-05-01T19:48:56.381Z,9.97
2019-05-01T19:51:26.110Z,11.03
2019-05-01T19:53:55.698Z,10.47
2019-05-01T19:56:25.235Z,11.43
2019-05-01T19:58:54.543Z,10.53
2019-05-01T20:01:23.653Z,10.33
2019-05-01T20:03:52.980Z,9.83
2019-05-01T20:06:22.052Z,10.83
2019-05-01T20:08:51.299Z,9.30
2019-05-01T20:11:20.669Z,9.40
2019-05-01T20:13:49.929Z,11.20
2019-05-01T20:16:19.634Z,10.60
2019-05-01T20:18:49.013Z,13.47
2019-05-01T20:21:18.780Z,10.17
2019-05-01T20:23:48.082Z,9.77
2019-05-01T20:26:17.528Z,13.43
2019-05-01T20:28:47.258Z,9.73
2019-05-01T20:31:17.883Z,9.80
2019-05-01T20:33:48.077Z,14.23
2019-05-01T20:36:17.748Z,12.87
2019-05-01T20:38:47.129Z,14.63
2019-05-01T20:41:18.015Z,13.50
2019-05-01T20:43:47.343Z,11.43
2019-05-01T20:46:21.405Z,10.43
2019-05-01T20:48:47.718Z,10.80
2019-05-01T20:51:20.197Z,19.53
2019-05-01T20:53:49.129Z,13.60
2019-05-01T20:56:26.995Z,10.63
2019-05-01T20:58:57.628Z,14.97
2019-05-01T21:01:29.522Z,12.43
2019-05-01T21:04:21.968Z,13.53
2019-05-01T21:07:15.651Z,11.73
2019-05-01T21:09:47.673Z,14.70
2019-05-01T21:12:16.949Z,14.27
2019-05-01T21:14:49.551Z,13.57
2019-05-01T21:17:17.319Z,15.70
2019-05-01T21:19:46.698Z,15.43
2019-05-01T21:22:15.845Z,13.80
2019-05-01T21:24:45.316Z,15.10
2019-05-01T21:27:14.516Z,13.80
2019-05-01T21:29:44.606Z,13.43
2019-05-01T21:32:18.266Z,12.60
2019-05-01T21:34:44.968Z,11.30
2019-05-01T21:37:14.320Z,13.00
2019-05-01T21:39:43.940Z,12.80
2019-05-01T21:42:16.089Z,17.67
2019-05-01T21:44:44.338Z,11.40
2019-05-01T21:47:14.030Z,13.53
2019-05-01T21:49:43.306Z,15.17
2019-05-01T21:52:13.618Z,13.47
2019-05-01T21:54:43.570Z,14.40
2019-05-01T21:57:17.301Z,13.77
2019-05-01T21:59:46.663Z,16.80
2019-05-01T22:02:14.977Z,15.67
2019-05-01T22:04:44.108Z,16.60
2019-05-01T22:07:13.636Z,14.27
2019-05-01T22:09:45.702Z,15.43
2019-05-01T22:12:14.450Z,13.93
2019-05-01T22:15:10.911Z,13.43
2019-05-01T22:18:01.917Z,15.10
2019-05-01T22:20:44.519Z,14.53
2019-05-01T22:23:17.133Z,13.33
2019-05-01T22:25:50.061Z,14.20
2019-05-01T22:28:26.897Z,12.90
2019-05-01T22:31:16.727Z,16.77
2019-05-01T22:33:47.407Z,13.23
2019-05-01T22:36:17.160Z,14.40
2019-05-01T22:38:46.740Z,14.37
2019-05-01T22:41:16.242Z,17.20
2019-05-01T22:43:45.529Z,15.20
2019-05-01T22:46:21.066Z,14.10
2019-05-01T22:48:50.557Z,19.10
2019-05-01T22:51:22.595Z,13.60
2019-05-01T22:53:54.863Z,14.43
2019-05-01T22:56:25.530Z,15.00
2019-05-01T22:58:55.195Z,13.90
2019-05-01T23:01:25.874Z,12.13
2019-05-01T23:03:57.193Z,14.13
2019-05-01T23:06:26.359Z,12.90
2019-05-01T23:08:55.867Z,14.20
2019-05-01T23:11:26.700Z,17.17
2019-05-01T23:13:56.315Z,16.23
2019-05-01T23:16:28.722Z,17.30
2019-05-01T23:18:58.287Z,15.67
2019-05-01T23:21:27.847Z,17.73
2019-05-01T23:24:01.769Z,13.80
2019-05-01T23:26:27.912Z,14.93
2019-05-01T23:28:57.235Z,13.80
2019-05-01T23:31:26.557Z,15.97
2019-05-01T23:33:55.890Z,15.63
2019-05-01T23:36:25.005Z,13.97
2019-05-01T23:38:54.149Z,13.47
2019-05-01T23:41:44.769Z,15.83
2019-05-01T23:43:58.309Z,15.70
2019-05-01T23:46:25.518Z,15.70
2019-05-01T23:48:55.399Z,13.83
2019-05-01T23:51:28.637Z,14.63
2019-05-01T23:53:55.842Z,14.60
2019-05-01T23:56:25.049Z,13.97
2019-05-01T23:58:55.318Z,12.87
